Time;durP1;ratioP1;P1;durP2;ratioP2;P2;SDS_P1;SDS_P2;PMS_P1;PMS_P2;Temp;Humidity;BMP_temperature;BMP_pressure;BME280_temperature;BME280_humidity;BME280_pressure;Samples;Min_cycle;Max_cycle;Signal;HPM_P1;HPM_P2
2024/02/18 00:00:05;;;;;;;25.70;24.50;;;21.50;63.30;;;;;;5063807;28;20443;-65
2024/02/18 00:02:34;;;;;;;25.60;24.50;;;21.50;63.40;;;;;;5066296;28;20514;-65
2024/02/18 00:05:01;;;;;;;26.03;24.83;;;21.50;63.50;;;;;;5060139;28;20463;-65
2024/02/18 00:07:29;;;;;;;25.10;24.10;;;21.40;63.40;;;;;;5064559;28;20993;-65
2024/02/18 00:09:56;;;;;;;25.20;24.13;;;21.40;63.50;;;;;;5071802;28;20482;-64
2024/02/18 00:12:24;;;;;;;24.57;23.57;;;21.50;63.60;;;;;;5065193;28;20478;-65
2024/02/18 00:14:51;;;;;;;26.13;24.93;;;21.40;63.50;;;;;;5062753;28;20467;-65
2024/02/18 00:17:18;;;;;;;25.73;24.63;;;21.40;63.50;;;;;;5062917;28;20578;-65
2024/02/18 00:19:45;;;;;;;25.50;24.50;;;21.40;63.60;;;;;;5071398;28;20519;-65
2024/02/18 00:22:12;;;;;;;25.00;24.00;;;21.40;63.70;;;;;;5065949;28;20467;-64
2024/02/18 00:24:40;;;;;;;25.47;24.37;;;21.40;63.70;;;;;;5062722;28;20567;-64
2024/02/18 00:27:09;;;;;;;25.83;24.83;;;21.40;63.60;;;;;;5062650;28;20444;-65
2024/02/18 00:29:36;;;;;;;27.00;25.80;;;21.40;63.70;;;;;;5065433;28;20444;-65
2024/02/18 00:32:03;;;;;;;26.00;24.90;;;21.40;63.70;;;;;;5073131;28;20497;-64
2024/02/18 00:34:30;;;;;;;25.73;24.63;;;21.40;63.70;;;;;;5065573;28;20440;-64
2024/02/18 00:36:57;;;;;;;25.27;24.27;;;21.30;63.60;;;;;;5065925;28;20991;-65
2024/02/18 00:39:24;;;;;;;26.60;25.50;;;21.30;63.60;;;;;;5065076;28;20450;-64
2024/02/18 00:41:52;;;;;;;25.97;24.97;;;21.30;63.60;;;;;;5065767;28;20565;-65
2024/02/18 00:44:23;;;;;;;25.60;24.60;;;21.30;63.70;;;;;;5065247;28;21013;-65
2024/02/18 00:46:50;;;;;;;25.43;24.43;;;21.30;63.70;;;;;;5062424;28;20444;-65
2024/02/18 00:49:17;;;;;;;25.50;24.50;;;21.30;63.70;;;;;;5062448;28;20472;-64
2024/02/18 00:51:44;;;;;;;25.40;24.30;;;21.30;63.70;;;;;;5053991;28;20479;-65
2024/02/18 00:54:11;;;;;;;25.40;24.20;;;21.30;63.80;;;;;;5069535;28;20436;-65
2024/02/18 00:56:38;;;;;;;25.43;24.43;;;21.30;63.90;;;;;;5062658;28;21048;-65
2024/02/18 00:59:06;;;;;;;26.57;25.47;;;21.30;63.90;;;;;;5061003;28;20475;-64
2024/02/18 01:01:33;;;;;;;25.60;24.50;;;21.30;63.90;;;;;;5063798;28;20476;-65
2024/02/18 01:04:00;;;;;;;25.30;24.30;;;21.20;63.80;;;;;;5065363;28;20554;-65
2024/02/18 01:06:27;;;;;;;24.57;23.67;;;21.20;63.90;;;;;;5064078;28;20487;-64
2024/02/18 01:08:54;;;;;;;25.53;24.53;;;21.20;63.90;;;;;;5062103;28;20471;-64
2024/02/18 01:11:21;;;;;;;24.70;23.77;;;21.20;64.80;;;;;;5061994;28;20460;-65
2024/02/18 01:13:48;;;;;;;25.87;24.80;;;21.20;64.00;;;;;;5065112;28;20512;-65
2024/02/18 01:16:16;;;;;;;25.10;24.13;;;21.20;64.10;;;;;;5065135;28;20459;-65
2024/02/18 01:18:44;;;;;;;25.37;24.27;;;21.20;64.10;;;;;;5061980;28;20464;-65
2024/02/18 01:21:11;;;;;;;25.03;24.03;;;21.20;64.00;;;;;;5061613;28;20487;-65
2024/02/18 01:23:38;;;;;;;25.17;24.17;;;21.20;64.00;;;;;;5063989;28;20483;-65
2024/02/18 01:26:05;;;;;;;25.00;23.90;;;21.20;64.00;;;;;;5064928;28;20894;-65
2024/02/18 01:28:32;;;;;;;24.73;23.83;;;21.20;64.00;;;;;;5063270;28;20937;-65
2024/02/18 01:30:59;;;;;;;33.43;32.13;;;21.20;64.00;;;;;;5066871;28;20474;-65
2024/02/18 01:33:27;;;;;;;25.03;23.93;;;21.20;64.10;;;;;;5063967;28;20463;-64
2024/02/18 01:35:54;;;;;;;24.97;23.97;;;21.20;64.10;;;;;;5061290;28;20594;-64
2024/02/18 01:38:21;;;;;;;25.40;24.40;;;21.20;64.10;;;;;;5068841;28;20478;-65
2024/02/18 01:40:47;;;;;;;25.57;24.57;;;21.20;64.10;;;;;;5061210;28;20859;-65
2024/02/18 01:43:17;;;;;;;24.40;23.50;;;21.10;64.10;;;;;;5061297;28;20910;-65
2024/02/18 01:45:45;;;;;;;25.27;24.17;;;21.10;64.20;;;;;;5064230;28;20463;-66
2024/02/18 01:48:13;;;;;;;25.60;24.50;;;21.10;64.20;;;;;;5060912;28;20445;-65
2024/02/18 01:50:41;;;;;;;24.73;23.63;;;21.10;64.20;;;;;;5069219;28;20474;-64
2024/02/18 01:53:09;;;;;;;25.00;24.00;;;21.10;64.30;;;;;;5061009;28;20479;-65
2024/02/18 01:55:36;;;;;;;25.13;24.03;;;21.10;64.30;;;;;;5062809;28;20562;-65
2024/02/18 01:58:04;;;;;;;24.03;23.10;;;21.10;64.30;;;;;;5065001;28;20867;-65
2024/02/18 02:00:32;;;;;;;25.20;24.20;;;21.10;64.30;;;;;;5062790;28;20451;-65
2024/02/18 02:02:59;;;;;;;25.37;24.20;;;21.10;64.40;;;;;;5060904;28;20915;-65
2024/02/18 02:05:27;;;;;;;25.40;24.30;;;21.10;64.40;;;;;;5060592;28;20459;-65
2024/02/18 02:07:55;;;;;;;25.57;24.20;;;21.10;64.40;;;;;;5064111;28;20467;-65
2024/02/18 02:10:23;;;;;;;25.00;23.80;;;21.10;64.40;;;;;;5063567;28;20498;-65
2024/02/18 02:12:49;;;;;;;25.47;24.23;;;21.10;64.50;;;;;;5064133;28;20450;-65
2024/02/18 02:15:17;;;;;;;25.00;23.97;;;21.10;64.50;;;;;;5063877;28;20448;-64
2024/02/18 02:17:43;;;;;;;24.87;23.87;;;21.10;64.40;;;;;;5060669;28;20981;-65
2024/02/18 02:20:11;;;;;;;24.43;23.47;;;21.00;64.40;;;;;;5060573;28;20436;-64
2024/02/18 02:22:38;;;;;;;25.13;24.07;;;21.10;64.50;;;;;;5062707;28;20506;-65
2024/02/18 02:25:09;;;;;;;25.70;24.60;;;21.00;64.40;;;;;;5063573;28;20505;-65
2024/02/18 02:27:38;;;;;;;24.60;23.70;;;21.10;64.60;;;;;;5062026;28;20523;-64
2024/02/18 02:30:08;;;;;;;24.73;23.73;;;21.00;64.40;;;;;;5060269;28;20467;-65
2024/02/18 02:32:35;;;;;;;26.00;24.80;;;21.00;64.40;;;;;;5062040;28;20818;-65
2024/02/18 02:35:03;;;;;;;25.07;24.07;;;21.00;64.40;;;;;;5063447;28;20554;-65
2024/02/18 02:37:30;;;;;;;24.50;23.40;;;21.00;64.40;;;;;;5062787;28;20435;-65
2024/02/18 02:39:57;;;;;;;24.70;23.80;;;21.00;64.50;;;;;;5060370;28;20445;-65
2024/02/18 02:42:24;;;;;;;26.30;25.20;;;21.00;64.50;;;;;;5060359;28;20463;-65
2024/02/18 02:44:50;;;;;;;26.10;25.00;;;21.00;64.50;;;;;;5067866;28;20511;-64
2024/02/18 02:47:19;;;;;;;24.40;23.50;;;21.00;64.50;;;;;;5067103;28;20954;-65
2024/02/18 02:49:46;;;;;;;24.77;23.70;;;21.00;64.60;;;;;;5060381;28;20475;-64
2024/02/18 02:52:12;;;;;;;24.90;23.77;;;21.00;64.70;;;;;;5060190;28;20535;-65
2024/02/18 02:54:39;;;;;;;24.47;23.37;;;21.00;64.60;;;;;;5062337;28;20929;-64
2024/02/18 02:57:06;;;;;;;25.70;24.60;;;21.00;64.60;;;;;;5063718;28;20814;-65
2024/02/18 02:59:33;;;;;;;24.77;23.77;;;21.00;64.60;;;;;;5062172;28;20447;-64
2024/02/18 03:02:00;;;;;;;25.57;24.50;;;20.90;64.50;;;;;;5060131;28;20951;-65
2024/02/18 03:04:28;;;;;;;25.43;24.33;;;20.90;64.50;;;;;;5059934;28;20999;-64
2024/02/18 03:06:55;;;;;;;33.10;31.77;;;20.90;64.50;;;;;;5063499;28;20471;-64
2024/02/18 03:09:22;;;;;;;25.83;24.83;;;20.90;64.50;;;;;;5063503;28;20492;-65
2024/02/18 03:11:49;;;;;;;25.90;24.80;;;20.90;64.50;;;;;;5052073;28;21001;-65
2024/02/18 03:14:16;;;;;;;25.50;24.40;;;20.90;64.50;;;;;;5059985;28;20444;-65
2024/02/18 03:16:44;;;;;;;26.37;25.27;;;20.90;64.50;;;;;;5068915;28;20467;-65
2024/02/18 03:19:11;;;;;;;25.30;24.20;;;20.90;64.50;;;;;;5059965;28;20811;-65
2024/02/18 03:21:40;;;;;;;25.70;24.60;;;20.90;64.50;;;;;;5068854;28;20522;-65
2024/02/18 03:24:07;;;;;;;25.70;24.30;;;20.90;64.50;;;;;;5063794;28;20994;-66
2024/02/18 03:26:34;;;;;;;25.23;24.13;;;20.90;64.60;;;;;;5066206;28;20495;-64
2024/02/18 03:29:03;;;;;;;26.67;25.67;;;20.90;64.60;;;;;;5067410;28;20505;-64
2024/02/18 03:31:30;;;;;;;25.20;24.20;;;20.90;64.70;;;;;;5058883;28;20507;-65
2024/02/18 03:33:57;;;;;;;26.20;24.80;;;20.90;64.70;;;;;;5067243;28;20806;-65
2024/02/18 03:36:24;;;;;;;25.63;24.53;;;20.90;64.70;;;;;;5066568;28;20466;-64
2024/02/18 03:38:52;;;;;;;24.73;23.63;;;20.90;64.60;;;;;;5055884;28;20476;-64
2024/02/18 03:41:19;;;;;;;25.57;24.57;;;20.90;64.60;;;;;;5063629;28;20811;-65
2024/02/18 03:43:46;;;;;;;24.60;23.63;;;20.90;64.70;;;;;;5063333;28;20464;-65
2024/02/18 03:46:13;;;;;;;25.60;24.60;;;20.80;64.60;;;;;;5063902;28;20456;-64
2024/02/18 03:48:40;;;;;;;26.10;25.00;;;20.80;64.70;;;;;;5065690;28;20463;-64
2024/02/18 03:51:07;;;;;;;25.20;24.20;;;20.80;64.70;;;;;;5066959;28;20474;-64
2024/02/18 03:53:34;;;;;;;26.30;25.30;;;20.80;64.60;;;;;;5065596;28;20466;-66
2024/02/18 03:56:02;;;;;;;26.17;25.07;;;20.80;64.60;;;;;;5066114;28;20491;-64
2024/02/18 03:58:29;;;;;;;25.30;24.23;;;20.80;64.60;;;;;;5063965;28;20468;-65
2024/02/18 04:00:56;;;;;;;26.20;25.10;;;20.80;64.60;;;;;;5070852;28;20882;-64
2024/02/18 04:03:23;;;;;;;26.17;25.07;;;20.80;64.60;;;;;;5063012;28;20892;-65
2024/02/18 04:05:50;;;;;;;26.10;24.93;;;20.80;64.60;;;;;;5067197;28;20502;-65
2024/02/18 04:08:16;;;;;;;26.83;25.47;;;20.80;64.60;;;;;;5066541;28;20467;-64
2024/02/18 04:10:43;;;;;;;25.30;24.10;;;20.80;64.60;;;;;;5063907;28;20498;-65
2024/02/18 04:13:12;;;;;;;26.07;24.87;;;20.80;64.60;;;;;;5063017;28;20476;-64
2024/02/18 04:15:38;;;;;;;26.40;25.20;;;20.80;64.60;;;;;;5070457;28;20479;-65
2024/02/18 04:18:05;;;;;;;26.47;25.37;;;20.80;64.70;;;;;;5062916;28;20476;-65
2024/02/18 04:20:32;;;;;;;25.43;24.43;;;20.80;64.60;;;;;;5062843;28;20476;-64
2024/02/18 04:22:59;;;;;;;25.50;24.43;;;20.80;64.70;;;;;;5062983;28;20483;-64
2024/02/18 04:25:27;;;;;;;25.70;24.53;;;20.80;64.60;;;;;;5062547;28;20511;-65
2024/02/18 04:27:53;;;;;;;25.70;24.60;;;20.80;64.70;;;;;;5066132;28;20445;-65
2024/02/18 04:30:22;;;;;;;26.20;25.00;;;20.80;64.70;;;;;;5065919;28;20475;-65
2024/02/18 04:32:48;;;;;;;25.33;24.30;;;20.80;64.70;;;;;;5062844;28;20868;-64
2024/02/18 04:35:15;;;;;;;26.53;25.23;;;20.80;64.70;;;;;;5087253;22;20488;-64
2024/02/18 04:37:42;;;;;;;26.30;25.20;;;20.80;64.70;;;;;;5054381;28;20494;-64
2024/02/18 04:40:11;;;;;;;26.20;25.10;;;20.80;64.70;;;;;;5054100;28;20468;-63
2024/02/18 04:42:38;;;;;;;25.60;24.50;;;20.70;64.60;;;;;;5054044;28;20467;-64
2024/02/18 04:45:05;;;;;;;26.13;25.03;;;20.70;64.50;;;;;;5060372;28;20552;-63
2024/02/18 04:47:34;;;;;;;26.20;25.03;;;20.70;64.50;;;;;;5053938;28;20480;-63
2024/02/18 04:50:04;;;;;;;25.17;24.17;;;20.70;64.60;;;;;;5053939;28;20468;-63
2024/02/18 04:52:30;;;;;;;25.30;24.30;;;20.70;64.50;;;;;;5053708;28;20471;-63
2024/02/18 04:54:57;;;;;;;24.77;23.67;;;20.70;64.60;;;;;;5045722;28;20469;-63
2024/02/18 04:57:24;;;;;;;25.00;23.90;;;20.70;64.50;;;;;;5054090;28;20489;-63
2024/02/18 04:59:51;;;;;;;25.30;24.30;;;20.70;64.50;;;;;;5053563;28;20953;-63
2024/02/18 05:02:18;;;;;;;27.07;25.97;;;20.70;64.50;;;;;;5053557;28;20974;-63
2024/02/18 05:04:46;;;;;;;26.20;25.00;;;20.70;64.50;;;;;;5060083;28;20535;-63
2024/02/18 05:07:13;;;;;;;26.57;25.37;;;20.70;64.50;;;;;;5053558;28;20480;-64
2024/02/18 05:09:40;;;;;;;26.80;25.67;;;20.70;64.60;;;;;;5053436;28;20432;-64
2024/02/18 05:12:08;;;;;;;27.30;26.20;;;20.70;64.50;;;;;;5053454;28;20947;-64
2024/02/18 05:14:34;;;;;;;26.27;25.27;;;20.70;64.50;;;;;;5045260;28;20442;-64
2024/02/18 05:17:01;;;;;;;26.43;25.43;;;20.70;64.50;;;;;;5053276;28;20480;-63
2024/02/18 05:19:28;;;;;;;27.57;26.40;;;20.70;65.20;;;;;;5053344;28;20472;-63
2024/02/18 05:21:56;;;;;;;25.87;24.97;;;20.70;64.30;;;;;;5045312;28;20475;-63
2024/02/18 05:24:23;;;;;;;29.07;27.77;;;20.70;64.30;;;;;;5045863;28;21035;-64
2024/02/18 05:26:50;;;;;;;26.90;25.90;;;20.70;64.30;;;;;;5044167;28;20495;-64
2024/02/18 05:29:17;;;;;;;26.93;25.93;;;20.70;64.30;;;;;;5053205;28;20447;-63
2024/02/18 05:31:44;;;;;;;26.87;25.80;;;20.70;64.20;;;;;;5053143;28;20471;-64
2024/02/18 05:34:11;;;;;;;26.10;25.10;;;20.70;64.20;;;;;;5058931;28;20943;-64
2024/02/18 05:36:41;;;;;;;26.80;25.70;;;20.70;64.20;;;;;;5052725;28;20464;-62
2024/02/18 05:39:10;;;;;;;26.07;25.07;;;20.70;64.20;;;;;;5053025;28;20502;-63
2024/02/18 05:41:37;;;;;;;27.40;26.30;;;20.70;64.30;;;;;;5052916;28;20495;-64
2024/02/18 05:44:04;;;;;;;34.43;33.13;;;20.70;64.20;;;;;;5047814;28;20437;-63
2024/02/18 05:46:30;;;;;;;34.13;32.80;;;20.70;64.20;;;;;;5040733;28;20523;-63
2024/02/18 05:48:58;;;;;;;31.60;30.40;;;20.70;64.20;;;;;;5052870;28;20883;-64
2024/02/18 05:51:24;;;;;;;34.40;32.90;;;20.70;64.10;;;;;;5052950;28;20440;-64
2024/02/18 05:53:51;;;;;;;26.77;25.67;;;20.70;64.10;;;;;;5058167;28;20487;-63
2024/02/18 05:56:19;;;;;;;26.43;25.40;;;20.70;64.10;;;;;;5052590;28;20495;-63
2024/02/18 05:58:46;;;;;;;25.67;24.67;;;20.60;64.00;;;;;;5052450;28;20475;-64
2024/02/18 06:01:13;;;;;;;27.17;26.17;;;20.60;63.90;;;;;;5052834;28;20570;-64
2024/02/18 06:03:40;;;;;;;25.90;24.90;;;20.60;64.00;;;;;;5051289;28;20443;-63
2024/02/18 06:06:07;;;;;;;26.40;25.40;;;20.60;64.00;;;;;;5045726;28;20574;-63
2024/02/18 06:08:34;;;;;;;29.10;28.00;;;20.60;64.00;;;;;;5052216;28;20468;-64
2024/02/18 06:11:01;;;;;;;26.93;25.83;;;20.60;64.10;;;;;;5052529;28;20467;-64
2024/02/18 06:13:29;;;;;;;26.33;25.33;;;20.60;64.10;;;;;;5057041;28;20875;-64
2024/02/18 06:15:56;;;;;;;27.07;25.97;;;20.60;64.20;;;;;;5043959;28;20497;-64
2024/02/18 06:18:23;;;;;;;26.40;25.40;;;20.60;64.20;;;;;;5052241;28;20475;-63
2024/02/18 06:20:50;;;;;;;26.33;25.30;;;20.60;64.30;;;;;;5052195;28;20448;-64
2024/02/18 06:23:16;;;;;;;26.57;25.47;;;20.60;64.30;;;;;;5044172;28;20479;-64
2024/02/18 06:25:44;;;;;;;25.90;24.87;;;20.60;64.30;;;;;;5051756;28;20571;-64
2024/02/18 06:28:11;;;;;;;25.47;24.47;;;20.60;64.30;;;;;;5052005;28;20464;-64
2024/02/18 06:30:40;;;;;;;26.30;25.30;;;20.60;64.30;;;;;;5052071;28;20946;-63
2024/02/18 06:33:07;;;;;;;25.90;24.90;;;20.60;64.30;;;;;;5043969;28;20464;-64
2024/02/18 06:35:34;;;;;;;25.63;24.63;;;20.60;64.30;;;;;;5051669;28;20464;-64
2024/02/18 06:38:01;;;;;;;25.33;24.33;;;20.60;64.40;;;;;;5051772;28;20464;-63
2024/02/18 06:40:28;;;;;;;27.40;26.30;;;20.60;64.50;;;;;;5052149;28;20445;-64
2024/02/18 06:42:55;;;;;;;24.90;23.80;;;20.60;64.60;;;;;;5043522;28;20882;-63
2024/02/18 06:45:22;;;;;;;25.17;24.17;;;20.60;64.60;;;;;;5051572;28;20522;-64
2024/02/18 06:47:50;;;;;;;25.93;24.90;;;20.60;64.60;;;;;;5051720;28;20482;-64
2024/02/18 06:50:18;;;;;;;26.10;25.10;;;20.60;64.50;;;;;;5051898;28;20464;-63
2024/02/18 06:52:44;;;;;;;25.20;24.20;;;20.60;64.50;;;;;;5043264;28;20935;-64
2024/02/18 06:55:11;;;;;;;26.63;25.37;;;20.60;64.50;;;;;;5051513;28;20492;-64
2024/02/18 06:57:38;;;;;;;26.10;25.10;;;20.60;64.50;;;;;;5051626;28;20444;-63
2024/02/18 07:00:08;;;;;;;25.30;24.30;;;20.60;64.50;;;;;;5052192;28;20478;-63
2024/02/18 07:02:35;;;;;;;25.20;24.20;;;20.60;64.50;;;;;;5043562;28;20444;-63
2024/02/18 07:05:05;;;;;;;26.67;25.60;;;20.60;64.60;;;;;;5051526;28;21018;-63
2024/02/18 07:07:31;;;;;;;26.57;25.47;;;20.60;64.60;;;;;;5051636;28;20471;-63
2024/02/18 07:09:58;;;;;;;27.07;25.97;;;20.60;64.70;;;;;;5043600;28;20472;-63
2024/02/18 07:12:25;;;;;;;27.33;26.13;;;20.60;64.70;;;;;;5043264;28;20472;-63
2024/02/18 07:14:52;;;;;;;26.27;25.17;;;20.60;64.70;;;;;;5041593;28;20473;-64
2024/02/18 07:17:20;;;;;;;26.40;25.40;;;20.60;64.70;;;;;;5051417;28;20475;-63
2024/02/18 07:19:48;;;;;;;25.80;24.80;;;20.60;64.70;;;;;;5051550;28;20810;-65
2024/02/18 07:22:17;;;;;;;25.40;24.20;;;20.60;64.90;;;;;;5045419;28;20535;-64
2024/02/18 07:24:44;;;;;;;25.57;24.57;;;20.60;65.00;;;;;;5051188;28;20815;-64
2024/02/18 07:27:12;;;;;;;25.60;24.50;;;20.60;65.20;;;;;;5051541;28;20460;-63
2024/02/18 07:29:39;;;;;;;25.27;24.27;;;20.60;65.60;;;;;;5051377;28;20448;-64
2024/02/18 07:32:06;;;;;;;24.63;23.63;;;20.60;66.20;;;;;;5057483;28;20467;-64
2024/02/18 07:34:33;;;;;;;24.93;23.93;;;20.60;66.20;;;;;;5051491;28;20440;-63
2024/02/18 07:37:00;;;;;;;25.90;24.80;;;20.60;66.50;;;;;;5042942;28;20514;-64
2024/02/18 07:39:29;;;;;;;25.83;24.73;;;20.60;66.80;;;;;;5051268;28;20464;-63
2024/02/18 07:41:56;;;;;;;26.20;25.13;;;20.60;66.90;;;;;;5042815;28;20974;-61
2024/02/18 07:44:23;;;;;;;27.13;25.90;;;20.60;67.00;;;;;;5042886;28;20954;-62
2024/02/18 07:46:50;;;;;;;25.50;24.40;;;20.70;67.70;;;;;;5050921;28;21011;-63
2024/02/18 07:49:18;;;;;;;24.73;23.73;;;20.70;68.30;;;;;;5051193;28;20982;-61
2024/02/18 07:51:45;;;;;;;26.20;25.10;;;20.80;68.80;;;;;;5056578;28;20526;-62
2024/02/18 07:54:13;;;;;;;25.70;24.50;;;20.80;68.80;;;;;;5051009;28;20472;-64
2024/02/18 07:56:45;;;;;;;26.33;25.13;;;20.80;69.00;;;;;;5050967;28;20970;-62
2024/02/18 07:59:12;;;;;;;24.97;23.87;;;20.80;68.90;;;;;;5051146;28;20436;-63
2024/02/18 08:01:39;;;;;;;24.67;23.67;;;20.80;68.80;;;;;;5042734;28;20441;-63
2024/02/18 08:04:06;;;;;;;24.87;23.87;;;20.90;68.90;;;;;;5050910;28;20470;-62
2024/02/18 08:06:33;;;;;;;26.17;24.97;;;20.90;68.90;;;;;;5051102;28;20591;-63
2024/02/18 08:09:00;;;;;;;27.00;25.90;;;20.90;68.90;;;;;;5053788;28;20863;-62
2024/02/18 08:11:27;;;;;;;27.70;26.60;;;20.90;68.80;;;;;;5058150;28;20446;-63
2024/02/18 08:13:55;;;;;;;28.00;26.90;;;20.90;68.80;;;;;;5057177;28;20858;-63
2024/02/18 08:16:26;;;;;;;26.97;25.90;;;21.00;68.90;;;;;;5054555;28;20459;-63
2024/02/18 08:18:53;;;;;;;26.90;25.83;;;21.00;68.80;;;;;;5054436;28;20448;-63
2024/02/18 08:21:20;;;;;;;26.20;25.20;;;21.10;69.00;;;;;;5048529;28;20975;-60
2024/02/18 08:23:47;;;;;;;26.90;25.70;;;21.10;68.90;;;;;;5052460;28;20472;-63
2024/02/18 08:26:22;;;;;;;26.00;24.90;;;21.10;68.90;;;;;;5054671;28;20534;-71
2024/02/18 08:28:49;;;;;;;26.00;25.00;;;21.20;69.00;;;;;;5054699;28;20506;-65
2024/02/18 08:31:18;;;;;;;26.37;25.27;;;21.20;69.00;;;;;;5065118;28;20439;-65
2024/02/18 08:33:45;;;;;;;26.87;25.77;;;21.20;68.40;;;;;;5056520;28;20444;-67
2024/02/18 08:36:12;;;;;;;26.27;25.10;;;21.20;67.70;;;;;;5053437;28;20492;-64
2024/02/18 08:38:39;;;;;;;27.10;26.00;;;21.20;67.50;;;;;;5053050;28;20471;-68
2024/02/18 08:41:06;;;;;;;29.00;27.80;;;21.20;68.30;;;;;;5060145;28;20437;-63
2024/02/18 08:43:34;;;;;;;27.37;26.27;;;21.20;68.10;;;;;;5044958;28;20455;-66
2024/02/18 08:46:01;;;;;;;28.20;27.00;;;21.20;68.00;;;;;;5052596;28;20483;-65
2024/02/18 08:48:29;;;;;;;28.57;27.07;;;21.20;67.70;;;;;;5052836;28;20441;-65
2024/02/18 08:50:56;;;;;;;27.50;26.40;;;21.20;67.60;;;;;;5045156;28;20473;-67
2024/02/18 08:53:23;;;;;;;27.70;26.40;;;21.30;67.50;;;;;;5052739;28;20436;-67
2024/02/18 08:55:50;;;;;;;27.13;25.93;;;21.20;67.50;;;;;;5052542;28;20808;-63
2024/02/18 08:58:17;;;;;;;28.57;26.83;;;21.30;67.50;;;;;;5052772;28;20468;-63
2024/02/18 09:00:47;;;;;;;26.90;25.60;;;21.30;67.10;;;;;;5044531;28;20469;-66
2024/02/18 09:03:14;;;;;;;27.10;26.00;;;21.30;66.80;;;;;;5053193;28;20440;-66
2024/02/18 09:05:42;;;;;;;26.60;25.60;;;21.30;67.30;;;;;;5053577;28;20567;-64
2024/02/18 09:08:09;;;;;;;27.50;26.30;;;21.30;67.30;;;;;;5053990;28;20468;-64
2024/02/18 09:10:37;;;;;;;27.23;26.13;;;21.30;67.10;;;;;;5059274;28;20947;-64
2024/02/18 09:13:05;;;;;;;25.83;24.83;;;21.30;67.10;;;;;;5044373;28;20472;-63
2024/02/18 09:15:32;;;;;;;27.97;26.70;;;21.30;67.20;;;;;;5052298;28;20943;-64
2024/02/18 09:17:59;;;;;;;26.17;25.17;;;21.40;67.30;;;;;;5052408;28;20494;-65
2024/02/18 09:20:27;;;;;;;26.67;25.47;;;21.40;67.30;;;;;;5057472;28;20477;-67
2024/02/18 09:22:56;;;;;;;28.43;26.80;;;21.40;67.30;;;;;;5052199;28;20452;-66
2024/02/18 09:25:23;;;;;;;26.03;24.93;;;21.40;67.30;;;;;;5052027;28;20518;-69
2024/02/18 09:27:49;;;;;;;26.10;25.10;;;21.40;67.30;;;;;;5052280;28;20467;-67
2024/02/18 09:30:16;;;;;;;27.30;26.20;;;21.40;67.50;;;;;;5047497;28;21074;-67
2024/02/18 09:32:44;;;;;;;28.07;26.97;;;21.50;67.50;;;;;;5049121;28;20468;-67
2024/02/18 09:35:11;;;;;;;27.17;26.00;;;21.50;67.00;;;;;;5012507;28;1131225;-67
2024/02/18 09:37:38;;;;;;;26.20;25.00;;;21.50;66.70;;;;;;5053289;28;20463;-66
2024/02/18 09:40:09;;;;;;;28.17;26.80;;;21.40;66.50;;;;;;5041693;28;20464;-67
2024/02/18 09:42:42;;;;;;;28.47;27.27;;;21.50;66.60;;;;;;5049113;28;20977;-66
2024/02/18 09:45:13;;;;;;;27.50;26.33;;;21.50;66.60;;;;;;5045322;28;20458;-67
2024/02/18 09:47:41;;;;;;;26.73;25.53;;;21.50;66.50;;;;;;5052814;28;20557;-66
2024/02/18 09:50:13;;;;;;;26.57;25.57;;;21.50;66.30;;;;;;5057129;28;20437;-66
2024/02/18 09:52:41;;;;;;;25.80;24.80;;;21.50;66.30;;;;;;5052810;28;20447;-67
2024/02/18 09:55:11;;;;;;;25.93;24.83;;;21.50;66.20;;;;;;5044908;28;20480;-67
2024/02/18 09:57:38;;;;;;;28.47;27.30;;;21.50;66.20;;;;;;5053139;28;20468;-66
2024/02/18 10:00:08;;;;;;;29.40;28.17;;;21.50;66.20;;;;;;5044380;28;20436;-65
2024/02/18 10:02:36;;;;;;;27.00;26.00;;;21.50;66.10;;;;;;5052497;28;20467;-67
2024/02/18 10:05:04;;;;;;;26.10;25.10;;;21.50;65.90;;;;;;5052307;28;20524;-66
2024/02/18 10:07:33;;;;;;;26.60;25.60;;;21.50;65.80;;;;;;5052623;28;20907;-66
2024/02/18 10:10:01;;;;;;;26.43;25.33;;;21.50;65.80;;;;;;5051462;28;20966;-65
2024/02/18 10:12:31;;;;;;;26.83;25.73;;;21.50;65.80;;;;;;5052563;28;20449;-65
2024/02/18 10:15:00;;;;;;;26.50;25.50;;;21.50;65.70;;;;;;5052263;28;20478;-65
2024/02/18 10:17:28;;;;;;;28.23;26.50;;;21.50;65.70;;;;;;5054400;28;20527;-66
2024/02/18 10:19:55;;;;;;;25.60;24.80;;;21.50;65.80;;;;;;5051477;28;20466;-62
2024/02/18 10:22:24;;;;;;;31.00;29.90;;;21.50;65.90;;;;;;5052058;28;20245;-65
2024/02/18 10:24:51;;;;;;;31.63;30.43;;;21.60;65.70;;;;;;5052007;28;20443;-67
2024/02/18 10:27:18;;;;;;;29.23;28.23;;;21.60;65.40;;;;;;5051850;28;21088;-64
2024/02/18 10:29:48;;;;;;;27.67;26.57;;;21.60;65.20;;;;;;5051797;28;20527;-63
2024/02/18 10:32:15;;;;;;;29.97;28.90;;;21.60;65.10;;;;;;5051802;28;20443;-63
2024/02/18 10:34:43;;;;;;;28.73;27.73;;;21.70;65.20;;;;;;5051628;28;20482;-66
2024/02/18 10:37:18;;;;;;;26.90;26.00;;;21.70;65.10;;;;;;5092774;22;20498;-62
2024/02/18 10:39:50;;;;;;;27.30;26.43;;;21.60;65.00;;;;;;5051937;28;20444;-62
2024/02/18 10:42:19;;;;;;;28.87;27.67;;;21.70;65.00;;;;;;5051912;28;20494;-62
2024/02/18 10:44:51;;;;;;;27.10;26.20;;;21.70;64.90;;;;;;5051595;28;20531;-62
2024/02/18 10:47:21;;;;;;;26.80;25.90;;;21.70;64.90;;;;;;5032476;28;20568;-62
2024/02/18 10:49:54;;;;;;;26.90;26.10;;;21.70;64.80;;;;;;5031722;28;20441;-59
2024/02/18 10:52:26;;;;;;;26.70;25.80;;;21.70;64.80;;;;;;5031587;28;20469;-62
2024/02/18 10:55:02;;;;;;;29.43;28.53;;;21.70;64.60;;;;;;5031538;28;20503;-62
2024/02/18 10:57:32;;;;;;;28.17;27.37;;;21.70;64.60;;;;;;5031792;28;20520;-61
2024/02/18 11:00:05;;;;;;;28.50;27.50;;;21.80;64.60;;;;;;5031574;28;20451;-60
2024/02/18 11:02:40;;;;;;;28.80;27.80;;;21.70;64.40;;;;;;5031602;28;20437;-61
2024/02/18 11:05:08;;;;;;;28.00;27.13;;;21.80;64.40;;;;;;5031286;28;20464;-61
2024/02/18 11:07:36;;;;;;;29.73;28.83;;;21.80;64.30;;;;;;5031364;28;20508;-61
2024/02/18 11:10:05;;;;;;;29.50;28.50;;;21.80;64.30;;;;;;5031487;28;20971;-61
2024/02/18 11:12:33;;;;;;;29.10;28.20;;;21.80;64.20;;;;;;5031383;28;20449;-62
2024/02/18 11:15:02;;;;;;;28.47;27.57;;;21.80;64.10;;;;;;5031127;28;20957;-62
2024/02/18 11:17:29;;;;;;;29.20;28.30;;;21.80;64.00;;;;;;5031367;28;20438;-62
2024/02/18 11:19:57;;;;;;;30.13;29.23;;;21.80;63.90;;;;;;5031233;28;20473;-62
2024/02/18 11:22:24;;;;;;;29.07;28.20;;;21.80;63.90;;;;;;5031357;28;20481;-62
2024/02/18 11:24:52;;;;;;;28.30;27.40;;;21.80;63.80;;;;;;5031300;28;20999;-63
2024/02/18 11:27:20;;;;;;;29.50;28.60;;;21.80;63.70;;;;;;5031191;28;20481;-59
2024/02/18 11:29:48;;;;;;;29.60;28.70;;;21.80;63.60;;;;;;5031096;28;20445;-62
2024/02/18 11:32:16;;;;;;;27.30;26.40;;;21.80;63.50;;;;;;5031171;28;20440;-62
2024/02/18 11:34:44;;;;;;;28.87;27.97;;;21.80;63.50;;;;;;5031332;28;20479;-62
2024/02/18 11:37:31;;;;;;;26.70;25.90;;;21.90;63.40;;;;;;5023179;28;20487;-63
2024/02/18 11:39:59;;;;;;;27.37;26.47;;;21.90;63.40;;;;;;5030937;28;20487;-63
2024/02/18 11:42:28;;;;;;;27.27;26.47;;;21.80;63.20;;;;;;5031464;28;20433;-62
2024/02/18 11:45:10;;;;;;;26.80;26.00;;;21.90;63.30;;;;;;5034832;28;20495;-62
2024/02/18 11:47:38;;;;;;;27.67;26.60;;;21.90;63.20;;;;;;5034904;28;20504;-63
2024/02/18 11:50:08;;;;;;;29.50;28.50;;;21.90;63.10;;;;;;5034754;28;20476;-62
2024/02/18 11:52:35;;;;;;;27.20;26.30;;;21.90;63.10;;;;;;5034947;28;20966;-62
2024/02/18 11:55:02;;;;;;;28.03;27.13;;;21.90;63.10;;;;;;5034675;28;20452;-62
2024/02/18 11:57:29;;;;;;;27.80;26.87;;;21.90;63.00;;;;;;5034990;28;20829;-62
2024/02/18 11:59:56;;;;;;;27.53;26.63;;;21.90;63.00;;;;;;5034681;28;20524;-61
2024/02/18 12:02:23;;;;;;;29.60;28.70;;;21.90;62.90;;;;;;5034779;28;20448;-62
2024/02/18 12:04:52;;;;;;;28.03;27.13;;;21.90;62.90;;;;;;5034444;28;20472;-62
2024/02/18 12:07:19;;;;;;;29.60;28.70;;;21.90;62.80;;;;;;5034373;28;20484;-62
2024/02/18 12:09:46;;;;;;;27.10;26.30;;;21.90;62.70;;;;;;5034434;28;20477;-63
2024/02/18 12:12:13;;;;;;;26.43;25.63;;;22.00;62.80;;;;;;5034420;28;20469;-62
2024/02/18 12:14:53;;;;;;;27.23;26.43;;;22.00;62.80;;;;;;5034476;28;20880;-62
2024/02/18 12:17:20;;;;;;;28.43;27.53;;;22.00;62.70;;;;;;5027393;28;20462;-62
2024/02/18 12:19:48;;;;;;;28.80;27.90;;;22.00;62.70;;;;;;5034196;28;20472;-63
2024/02/18 12:22:23;;;;;;;28.93;27.93;;;22.00;62.60;;;;;;5034314;28;20444;-62
2024/02/18 12:24:50;;;;;;;27.37;26.57;;;22.00;62.60;;;;;;5034178;28;20889;-62
2024/02/18 12:27:19;;;;;;;29.17;28.23;;;22.00;62.50;;;;;;5034131;28;20477;-63